createdAt,value
2022-12-01T00:00:56.154Z,30.10
2022-12-01T00:03:27.008Z,28.40
2022-12-01T00:06:01.505Z,31.50
2022-12-01T00:08:32.450Z,33.10
2022-12-01T00:11:05.954Z,33.40
2022-12-01T00:16:12.471Z,31.60
2022-12-01T00:18:42.961Z,32.30
2022-12-01T00:21:16.256Z,30.90
2022-12-01T00:23:47.748Z,31.30
2022-12-01T00:26:19.315Z,32.30
2022-12-01T00:28:51.174Z,32.20
2022-12-01T00:31:22.221Z,33.10
2022-12-01T00:33:53.499Z,31.30
2022-12-01T00:36:24.897Z,32.70
2022-12-01T00:38:56.355Z,31.40
2022-12-01T00:41:27.720Z,33.50
2022-12-01T00:43:58.294Z,33.50
2022-12-01T00:46:29.285Z,31.70
2022-12-01T00:49:00.272Z,33.10
2022-12-01T00:51:31.449Z,34.40
2022-12-01T00:54:01.962Z,32.60
2022-12-01T00:56:32.977Z,31.70
2022-12-01T00:59:03.665Z,32.40
2022-12-01T01:01:35.420Z,29.70
2022-12-01T01:04:06.533Z,29.40
2022-12-01T01:06:37.439Z,31.10
2022-12-01T01:09:07.968Z,32.70
2022-12-01T01:11:38.699Z,32.90
2022-12-01T01:14:09.033Z,35.10
2022-12-01T01:16:40.043Z,33.50
2022-12-01T01:19:10.591Z,34.20
2022-12-01T01:21:41.470Z,34.40
2022-12-01T01:24:12.061Z,34.40
2022-12-01T01:26:43.307Z,31.60
2022-12-01T01:29:13.933Z,32.30
2022-12-01T01:31:44.948Z,33.50
2022-12-01T01:34:15.472Z,34.30
2022-12-01T01:36:47.256Z,35.70
2022-12-01T01:39:18.120Z,33.50
2022-12-01T01:41:48.869Z,33.50
2022-12-01T01:44:36.699Z,36.60
2022-12-01T01:47:07.599Z,36.40
2022-12-01T01:49:38.131Z,35.60
2022-12-01T01:52:08.960Z,35.60
2022-12-01T01:54:41.545Z,34.00
2022-12-01T01:57:13.446Z,35.60
2022-12-01T01:59:45.130Z,36.60
2022-12-01T02:02:16.273Z,36.30
2022-12-01T02:04:48.293Z,33.00
2022-12-01T02:07:20.815Z,33.50
2022-12-01T02:09:51.504Z,34.70
2022-12-01T02:12:27.932Z,34.10
2022-12-01T02:15:05.134Z,33.50
2022-12-01T02:17:41.684Z,32.00
2022-12-01T02:20:41.865Z,32.40
2022-12-01T02:23:25.968Z,29.20
2022-12-01T02:26:03.127Z,32.10
2022-12-01T02:28:48.424Z,33.50
2022-12-01T02:31:19.713Z,35.60
2022-12-01T02:33:53.711Z,33.40
2022-12-01T02:36:30.543Z,37.20
2022-12-01T02:39:08.178Z,35.20
2022-12-01T02:41:40.376Z,32.80
2022-12-01T02:44:15.373Z,34.10
2022-12-01T02:46:47.365Z,34.30
2022-12-01T02:49:19.370Z,34.80
2022-12-01T02:51:49.902Z,35.10
2022-12-01T02:54:21.030Z,35.10
2022-12-01T02:56:54.360Z,35.30
2022-12-01T03:02:02.264Z,35.60
2022-12-01T03:04:38.226Z,34.20
2022-12-01T03:07:12.947Z,33.90
2022-12-01T03:09:47.896Z,34.40
2022-12-01T03:12:22.319Z,31.30
2022-12-01T03:14:59.305Z,35.20
2022-12-01T03:17:32.121Z,29.00
2022-12-01T03:20:08.830Z,32.50
2022-12-01T03:22:42.630Z,30.90
2022-12-01T03:25:14.598Z,28.70
2022-12-01T03:28:13.827Z,30.80
2022-12-01T03:30:38.988Z,31.30
2022-12-01T03:33:10.445Z,30.00
2022-12-01T03:35:44.148Z,30.10
2022-12-01T03:40:44.417Z,27.00
2022-12-01T03:43:17.066Z,24.50
2022-12-01T03:45:52.228Z,25.60
2022-12-01T03:48:24.467Z,22.70
2022-12-01T03:50:57.764Z,25.50
2022-12-01T03:53:30.334Z,22.00
2022-12-01T03:56:03.943Z,21.60
2022-12-01T04:01:05.506Z,20.40
2022-12-01T04:03:36.137Z,20.50
2022-12-01T04:06:07.499Z,19.70
2022-12-01T04:08:38.321Z,20.10
2022-12-01T04:11:22.877Z,19.30
2022-12-01T04:13:53.350Z,18.80
2022-12-01T04:16:24.515Z,17.60
2022-12-01T04:18:55.181Z,17.90
2022-12-01T04:21:25.963Z,19.20
2022-12-01T04:24:02.497Z,17.20
2022-12-01T04:26:35.388Z,18.10
2022-12-01T04:29:07.363Z,18.60
2022-12-01T04:31:38.447Z,18.30
2022-12-01T04:34:09.252Z,18.80
2022-12-01T04:36:39.940Z,17.40
2022-12-01T04:39:10.468Z,17.80
2022-12-01T04:41:41.527Z,18.00
2022-12-01T04:44:12.299Z,19.80
2022-12-01T04:46:43.029Z,18.00
2022-12-01T04:49:13.550Z,20.60
2022-12-01T04:51:44.334Z,18.80
2022-12-01T04:54:14.736Z,17.10
2022-12-01T04:56:45.383Z,17.90
2022-12-01T04:59:16.123Z,18.40
2022-12-01T05:01:48.376Z,17.90
2022-12-01T05:04:19.229Z,20.40
2022-12-01T05:06:49.692Z,18.30
2022-12-01T05:09:21.617Z,19.80
2022-12-01T05:11:52.062Z,18.00
2022-12-01T05:14:22.680Z,17.00
2022-12-01T05:16:54.743Z,21.10
2022-12-01T05:19:43.325Z,20.00
2022-12-01T05:22:14.031Z,17.10
2022-12-01T05:24:44.759Z,18.60
2022-12-01T05:27:16.078Z,18.60
2022-12-01T05:29:47.024Z,18.80
2022-12-01T05:32:17.878Z,20.80
2022-12-01T05:34:48.618Z,18.60
2022-12-01T05:37:19.364Z,18.20
2022-12-01T05:39:50.174Z,18.50
2022-12-01T05:42:21.197Z,16.70
2022-12-01T05:44:52.054Z,16.80
2022-12-01T05:47:22.750Z,18.50
2022-12-01T05:49:53.321Z,17.50
2022-12-01T05:52:23.746Z,16.90
2022-12-01T05:54:54.063Z,16.80
2022-12-01T05:57:24.695Z,18.80
2022-12-01T05:59:55.020Z,18.20
2022-12-01T06:02:27.099Z,17.40
2022-12-01T06:04:57.551Z,17.60
2022-12-01T06:07:28.892Z,16.90
2022-12-01T06:09:59.493Z,16.90
2022-12-01T06:12:30.732Z,19.20
2022-12-01T06:15:01.915Z,16.30
2022-12-01T06:17:37.073Z,18.50
2022-12-01T06:20:11.646Z,16.90
2022-12-01T06:22:43.093Z,17.80
2022-12-01T06:25:13.358Z,16.50
2022-12-01T06:27:44.402Z,15.70
2022-12-01T06:30:15.335Z,15.20
2022-12-01T06:32:46.127Z,17.80
2022-12-01T06:35:16.824Z,16.10
2022-12-01T06:37:50.456Z,16.50
2022-12-01T06:40:20.786Z,16.80
2022-12-01T06:42:51.658Z,15.40
2022-12-01T06:45:22.242Z,16.00
2022-12-01T06:47:55.639Z,16.10
2022-12-01T06:50:26.571Z,16.90
2022-12-01T06:52:59.273Z,17.90
2022-12-01T06:55:29.951Z,17.20
2022-12-01T06:58:02.159Z,16.80
2022-12-01T07:00:33.202Z,15.60
2022-12-01T07:03:04.237Z,16.60
2022-12-01T07:05:34.763Z,17.60
2022-12-01T07:08:06.986Z,16.60
2022-12-01T07:10:37.361Z,16.10
2022-12-01T07:13:08.276Z,17.80
2022-12-01T07:15:39.340Z,15.30
2022-12-01T07:18:10.535Z,15.30
2022-12-01T07:20:40.870Z,17.00
2022-12-01T07:23:12.007Z,17.10
2022-12-01T07:25:42.375Z,17.50
2022-12-01T07:28:13.358Z,17.80
2022-12-01T07:30:43.777Z,16.20
2022-12-01T07:33:14.981Z,14.10
2022-12-01T07:35:45.307Z,16.30
2022-12-01T07:38:21.783Z,17.30
2022-12-01T07:40:52.640Z,18.20
2022-12-01T07:43:23.909Z,15.20
2022-12-01T07:45:54.228Z,14.60
2022-12-01T07:48:25.231Z,16.60
2022-12-01T07:50:56.907Z,18.80
2022-12-01T07:53:28.121Z,16.00
2022-12-01T07:55:58.543Z,15.40
2022-12-01T07:58:29.793Z,15.90
2022-12-01T08:01:00.625Z,16.90
2022-12-01T08:03:31.772Z,17.00
2022-12-01T08:06:03.007Z,15.50
2022-12-01T08:08:34.780Z,17.20
2022-12-01T08:11:06.326Z,14.50
2022-12-01T08:13:37.303Z,13.80
2022-12-01T08:16:08.590Z,14.50
2022-12-01T08:18:40.514Z,15.60
2022-12-01T08:21:12.017Z,14.10
2022-12-01T08:23:43.364Z,17.30
2022-12-01T08:26:15.248Z,15.40
2022-12-01T08:28:47.681Z,13.90
2022-12-01T08:31:18.915Z,15.10
2022-12-01T08:33:50.875Z,15.00
2022-12-01T08:36:21.611Z,15.00
2022-12-01T08:38:53.704Z,15.30
2022-12-01T08:41:24.945Z,14.30
2022-12-01T08:43:58.466Z,12.70
2022-12-01T08:46:30.569Z,13.80
2022-12-01T08:49:01.770Z,14.00
2022-12-01T08:51:33.152Z,13.40
2022-12-01T08:54:03.786Z,14.00
2022-12-01T08:56:35.596Z,14.90
2022-12-01T08:59:06.585Z,14.30
2022-12-01T09:01:52.061Z,14.40
2022-12-01T09:04:24.588Z,15.10
2022-12-01T09:06:56.368Z,14.60
2022-12-01T09:09:28.619Z,13.20
2022-12-01T09:11:59.451Z,14.10
2022-12-01T09:14:30.797Z,14.20
2022-12-01T09:17:01.327Z,13.80
2022-12-01T09:19:32.413Z,15.00
2022-12-01T09:22:03.238Z,13.80
2022-12-01T09:24:33.836Z,16.30
2022-12-01T09:27:04.872Z,13.70
2022-12-01T09:29:35.969Z,14.20
2022-12-01T09:32:06.829Z,13.90
2022-12-01T09:34:37.799Z,14.70
2022-12-01T09:37:08.318Z,13.00
2022-12-01T09:39:39.187Z,15.40
2022-12-01T09:42:13.921Z,14.60
2022-12-01T09:44:47.928Z,17.20
2022-12-01T09:47:21.188Z,14.80
2022-12-01T09:49:57.626Z,16.20
2022-12-01T09:52:29.891Z,15.80
2022-12-01T09:55:01.698Z,16.20
2022-12-01T09:57:33.741Z,16.80
2022-12-01T10:00:09.864Z,15.90
2022-12-01T10:02:45.556Z,17.50
2022-12-01T10:05:19.488Z,14.00
2022-12-01T10:10:22.202Z,15.90
2022-12-01T10:12:52.585Z,16.10
2022-12-01T10:15:32.023Z,15.90
2022-12-01T10:18:09.528Z,15.20
2022-12-01T10:20:43.847Z,15.40
2022-12-01T10:23:21.216Z,16.30
2022-12-01T10:25:56.820Z,16.60
2022-12-01T10:28:34.918Z,16.50
2022-12-01T10:31:08.975Z,15.50
2022-12-01T10:33:46.691Z,15.50
2022-12-01T10:36:17.575Z,14.60
2022-12-01T10:38:47.997Z,16.90
2022-12-01T10:41:20.157Z,18.90
2022-12-01T10:43:52.680Z,19.20
2022-12-01T10:46:25.775Z,17.90
2022-12-01T10:51:27.539Z,17.10
2022-12-01T10:54:07.487Z,17.50
2022-12-01T10:56:40.589Z,17.90
2022-12-01T10:59:22.585Z,16.10
2022-12-01T11:01:54.185Z,15.70
2022-12-01T11:04:30.633Z,17.40
2022-12-01T11:07:01.614Z,17.80
2022-12-01T11:09:32.173Z,18.80
2022-12-01T11:12:03.983Z,18.00
2022-12-01T11:14:42.542Z,16.70
2022-12-01T11:17:18.089Z,16.70
2022-12-01T11:19:48.624Z,15.30
2022-12-01T11:22:22.626Z,15.40
2022-12-01T11:25:00.567Z,17.00
2022-12-01T11:27:33.140Z,15.90
2022-12-01T11:30:07.309Z,14.60
2022-12-01T11:32:39.620Z,14.40
2022-12-01T11:35:18.135Z,15.00
2022-12-01T11:38:13.255Z,15.10
2022-12-01T11:40:46.634Z,15.50
2022-12-01T11:43:23.081Z,14.80
2022-12-01T11:45:54.393Z,16.80
2022-12-01T11:48:27.709Z,17.20
2022-12-01T11:51:06.206Z,17.00
2022-12-01T11:53:38.253Z,14.40
2022-12-01T11:56:19.277Z,14.20
2022-12-01T11:58:51.207Z,14.80
2022-12-01T12:01:33.738Z,16.40
2022-12-01T12:04:09.699Z,15.20
2022-12-01T12:06:43.182Z,14.50
2022-12-01T12:09:25.043Z,15.00
2022-12-01T12:12:03.560Z,14.70
2022-12-01T12:14:39.858Z,17.10
2022-12-01T12:17:18.533Z,15.70
2022-12-01T12:20:12.188Z,14.20
2022-12-01T12:22:54.967Z,15.20
2022-12-01T12:25:31.345Z,14.20
2022-12-01T12:28:09.562Z,15.30
2022-12-01T12:30:44.241Z,16.30
2022-12-01T12:33:33.885Z,15.60
2022-12-01T12:36:08.708Z,15.70
2022-12-01T12:38:46.377Z,16.10
2022-12-01T12:41:22.893Z,16.90
2022-12-01T12:43:57.734Z,15.00
2022-12-01T12:46:31.281Z,14.20
2022-12-01T12:49:22.458Z,13.10
2022-12-01T12:51:55.724Z,16.00
2022-12-01T12:54:29.114Z,14.80
2022-12-01T12:57:03.936Z,13.40
2022-12-01T12:59:36.880Z,13.30
2022-12-01T13:02:11.922Z,14.10
2022-12-01T13:04:44.176Z,13.20
2022-12-01T13:07:22.559Z,14.50
2022-12-01T13:10:00.457Z,13.40
2022-12-01T13:12:32.738Z,14.10
2022-12-01T13:15:05.027Z,15.00
2022-12-01T13:17:38.549Z,14.60
2022-12-01T13:20:14.664Z,15.50
2022-12-01T13:22:47.268Z,15.60
2022-12-01T13:25:24.780Z,13.60
2022-12-01T13:27:56.627Z,14.30
2022-12-01T13:30:28.193Z,13.80
2022-12-01T13:33:03.321Z,13.10
2022-12-01T13:35:34.869Z,14.90
2022-12-01T13:38:23.204Z,14.70
2022-12-01T13:41:10.833Z,13.50
2022-12-01T13:43:50.048Z,11.70
2022-12-01T13:46:26.967Z,12.30
2022-12-01T13:48:58.756Z,11.30
2022-12-01T13:51:49.303Z,12.20
2022-12-01T13:54:30.764Z,11.60
2022-12-01T13:57:02.807Z,12.90
2022-12-01T14:00:03.020Z,13.00
2022-12-01T14:02:42.617Z,14.30
2022-12-01T14:05:31.269Z,12.50
2022-12-01T14:08:02.058Z,12.20
2022-12-01T14:10:33.676Z,13.00
2022-12-01T14:13:06.135Z,14.70
2022-12-01T14:15:42.915Z,15.90
2022-12-01T14:18:27.204Z,13.70
2022-12-01T14:20:58.121Z,15.60
2022-12-01T14:23:30.864Z,14.50
2022-12-01T14:26:06.788Z,15.40
2022-12-01T14:28:54.974Z,15.80
2022-12-01T14:31:50.203Z,15.70
2022-12-01T14:36:53.018Z,15.30
2022-12-01T14:39:25.637Z,15.40
2022-12-01T14:41:58.023Z,16.20
2022-12-01T14:44:29.730Z,14.80
2022-12-01T14:47:02.953Z,15.10
2022-12-01T14:49:36.323Z,14.30
2022-12-01T14:52:08.848Z,15.40
2022-12-01T14:54:43.715Z,14.70
2022-12-01T14:57:17.293Z,15.00
2022-12-01T15:02:17.380Z,14.20
2022-12-01T15:05:05.443Z,15.10
2022-12-01T15:07:39.633Z,15.80
2022-12-01T15:10:17.747Z,14.50
2022-12-01T15:12:49.199Z,13.50
2022-12-01T15:15:23.999Z,13.60
2022-12-01T15:17:58.110Z,13.00
2022-12-01T15:20:34.754Z,15.00
2022-12-01T15:23:15.079Z,15.60
2022-12-01T15:25:46.440Z,13.20
2022-12-01T15:28:18.603Z,12.00
2022-12-01T15:30:49.654Z,12.00
2022-12-01T15:33:26.934Z,13.60
2022-12-01T15:35:58.922Z,11.70
2022-12-01T15:38:30.541Z,12.80
2022-12-01T15:43:57.326Z,12.60
2022-12-01T15:46:31.928Z,11.10
2022-12-01T15:49:11.169Z,12.90
2022-12-01T15:51:41.585Z,14.50
2022-12-01T15:54:18.419Z,13.00
2022-12-01T15:56:52.163Z,14.20
2022-12-01T15:59:27.895Z,13.10
2022-12-01T16:01:58.507Z,14.30
2022-12-01T16:04:32.466Z,14.40
2022-12-01T16:07:04.718Z,15.10
2022-12-01T16:09:37.247Z,12.40
2022-12-01T16:12:21.107Z,13.20
2022-12-01T16:14:52.805Z,13.70
2022-12-01T16:17:24.042Z,16.20
2022-12-01T16:20:08.293Z,13.10
2022-12-01T16:22:38.915Z,12.10
2022-12-01T16:25:16.605Z,13.40
2022-12-01T16:27:52.088Z,11.60
2022-12-01T16:30:24.564Z,13.40
2022-12-01T16:33:01.201Z,13.60
2022-12-01T16:35:33.892Z,12.90
2022-12-01T16:38:08.314Z,13.00
2022-12-01T16:40:41.116Z,12.20
2022-12-01T16:43:15.413Z,14.90
2022-12-01T16:45:46.963Z,15.80
2022-12-01T16:48:19.442Z,12.60
2022-12-01T16:50:50.665Z,13.90
2022-12-01T16:53:21.095Z,12.30
2022-12-01T16:55:53.514Z,13.60
2022-12-01T16:58:24.031Z,12.80
2022-12-01T17:00:55.084Z,13.60
2022-12-01T17:03:29.003Z,13.20
2022-12-01T17:06:00.445Z,14.40
2022-12-01T17:08:30.944Z,15.20
2022-12-01T17:11:01.943Z,15.30
2022-12-01T17:13:32.371Z,13.70
2022-12-01T17:16:06.421Z,15.60
2022-12-01T17:18:37.146Z,16.60
2022-12-01T17:21:09.152Z,14.80
2022-12-01T17:23:40.717Z,14.60
2022-12-01T17:26:13.064Z,14.60
2022-12-01T17:28:43.753Z,13.70
2022-12-01T17:31:15.221Z,14.80
2022-12-01T17:33:46.548Z,16.40
2022-12-01T17:36:17.842Z,15.20
2022-12-01T17:38:49.010Z,14.00
2022-12-01T17:41:25.075Z,13.80
2022-12-01T17:43:55.837Z,14.70
2022-12-01T17:46:27.181Z,13.40
2022-12-01T17:48:57.636Z,13.40
2022-12-01T17:51:29.046Z,15.30
2022-12-01T17:53:59.385Z,11.90
2022-12-01T17:56:30.589Z,13.70
2022-12-01T17:59:00.908Z,14.20
2022-12-01T18:01:33.373Z,13.20
2022-12-01T18:04:03.843Z,12.80
2022-12-01T18:06:34.789Z,13.40
2022-12-01T18:09:05.822Z,14.60
2022-12-01T18:11:36.665Z,14.50
2022-12-01T18:14:07.194Z,15.40
2022-12-01T18:16:37.951Z,15.70
2022-12-01T18:19:08.448Z,15.00
2022-12-01T18:21:39.899Z,16.20
2022-12-01T18:24:10.538Z,16.40
2022-12-01T18:26:41.958Z,14.90
2022-12-01T18:29:16.366Z,16.00
2022-12-01T18:31:47.793Z,13.10
2022-12-01T18:34:18.085Z,15.80
2022-12-01T18:36:48.917Z,16.80
2022-12-01T18:39:19.338Z,16.60
2022-12-01T18:41:50.998Z,15.70
2022-12-01T18:44:21.523Z,13.50
2022-12-01T18:46:52.589Z,15.70
2022-12-01T18:49:23.292Z,15.00
2022-12-01T18:51:54.230Z,15.70
2022-12-01T18:54:24.654Z,14.60
2022-12-01T18:56:59.039Z,13.00
2022-12-01T18:59:29.752Z,13.20
2022-12-01T19:02:01.196Z,13.70
2022-12-01T19:04:32.816Z,12.90
2022-12-01T19:07:04.288Z,13.30
2022-12-01T19:09:34.694Z,11.40
2022-12-01T19:12:06.144Z,13.10
2022-12-01T19:14:36.866Z,13.30
2022-12-01T19:17:07.705Z,13.10
2022-12-01T19:19:38.132Z,14.60
2022-12-01T19:22:08.981Z,13.50
2022-12-01T19:24:39.492Z,13.90
2022-12-01T19:27:11.042Z,15.20
2022-12-01T19:29:41.473Z,15.80
2022-12-01T19:32:12.714Z,16.10
2022-12-01T19:34:43.041Z,14.50
2022-12-01T19:37:13.641Z,14.30
2022-12-01T19:39:44.100Z,15.00
2022-12-01T19:42:14.886Z,14.60
2022-12-01T19:44:45.460Z,14.70
2022-12-01T19:47:21.883Z,16.20
2022-12-01T19:49:52.779Z,15.00
2022-12-01T19:52:23.602Z,14.30
2022-12-01T19:54:54.644Z,15.30
2022-12-01T19:57:25.264Z,15.30
2022-12-01T19:59:55.795Z,13.00
2022-12-01T20:02:29.336Z,14.80
2022-12-01T20:05:00.409Z,14.60
2022-12-01T20:07:31.880Z,16.50
2022-12-01T20:10:02.362Z,15.90
2022-12-01T20:12:33.175Z,14.40
2022-12-01T20:15:07.386Z,14.60
2022-12-01T20:17:38.445Z,13.90
2022-12-01T20:20:11.558Z,16.20
2022-12-01T20:22:42.437Z,17.50
2022-12-01T20:25:12.966Z,15.30
2022-12-01T20:27:45.842Z,15.10
2022-12-01T20:30:16.857Z,16.00
2022-12-01T20:32:47.936Z,15.30
2022-12-01T20:35:19.278Z,14.80
2022-12-01T20:37:50.011Z,14.10
2022-12-01T20:40:20.583Z,12.40
2022-12-01T20:42:51.179Z,15.50
2022-12-01T20:45:21.563Z,15.10
2022-12-01T20:47:52.122Z,16.00
2022-12-01T20:50:23.439Z,16.20
2022-12-01T20:52:53.995Z,14.40
2022-12-01T20:55:25.040Z,15.10
2022-12-01T20:57:55.769Z,17.10
2022-12-01T21:00:26.810Z,17.50
2022-12-01T21:02:58.155Z,15.80
2022-12-01T21:05:29.376Z,14.00
2022-12-01T21:08:00.234Z,16.10
2022-12-01T21:10:31.328Z,16.50
2022-12-01T21:13:22.030Z,17.80
2022-12-01T21:15:58.559Z,16.00
2022-12-01T21:18:36.898Z,17.00
2022-12-01T21:21:21.727Z,15.40
2022-12-01T21:24:01.509Z,17.20
2022-12-01T21:26:32.321Z,16.40
2022-12-01T21:29:03.405Z,18.70
2022-12-01T21:31:34.327Z,15.90
2022-12-01T21:34:10.135Z,18.10
2022-12-01T21:36:41.071Z,16.00
2022-12-01T21:39:14.787Z,17.70
2022-12-01T21:41:46.093Z,17.00
2022-12-01T21:44:17.486Z,17.00
2022-12-01T21:46:50.337Z,14.60
2022-12-01T21:49:21.959Z,14.70
2022-12-01T21:51:53.862Z,15.50
2022-12-01T21:54:24.602Z,16.10
2022-12-01T21:56:58.438Z,16.10
2022-12-01T21:59:29.343Z,15.30
2022-12-01T22:02:00.216Z,15.00
2022-12-01T22:04:32.846Z,16.00
2022-12-01T22:07:03.507Z,17.60
2022-12-01T22:09:35.097Z,17.10
2022-12-01T22:12:14.540Z,20.00
2022-12-01T22:14:45.108Z,18.20
2022-12-01T22:17:19.877Z,18.90
2022-12-01T22:19:53.789Z,18.40
2022-12-01T22:22:26.832Z,17.00
2022-12-01T22:24:59.516Z,18.00
2022-12-01T22:27:31.987Z,18.50
2022-12-01T22:30:11.266Z,19.40
2022-12-01T22:32:45.637Z,18.80
2022-12-01T22:35:24.579Z,18.30
2022-12-01T22:37:56.627Z,18.50
2022-12-01T22:40:40.981Z,16.80
2022-12-01T22:43:31.273Z,17.40
2022-12-01T22:46:19.395Z,16.10
2022-12-01T22:48:51.141Z,16.80
2022-12-01T22:51:32.868Z,18.80
2022-12-01T22:54:21.132Z,17.60
2022-12-01T22:56:52.549Z,17.10
2022-12-01T22:59:24.210Z,16.10
2022-12-01T23:01:55.722Z,17.10
2022-12-01T23:04:28.104Z,18.20
2022-12-01T23:07:03.100Z,17.10
2022-12-01T23:09:35.753Z,19.00
2022-12-01T23:12:23.712Z,16.70
2022-12-01T23:14:55.988Z,17.30
2022-12-01T23:17:28.118Z,17.20
2022-12-01T23:20:24.442Z,16.20
2022-12-01T23:22:56.431Z,15.50
2022-12-01T23:25:27.758Z,14.70
2022-12-01T23:28:00.372Z,16.40
2022-12-01T23:30:31.304Z,16.60
2022-12-01T23:33:07.347Z,17.20
2022-12-01T23:35:40.868Z,17.20
2022-12-01T23:38:15.211Z,17.50
2022-12-01T23:40:46.474Z,16.90
2022-12-01T23:43:20.663Z,16.30
2022-12-01T23:45:52.574Z,17.00
2022-12-01T23:48:23.956Z,17.20
2022-12-01T23:50:55.566Z,18.50
2022-12-01T23:53:29.870Z,16.50
2022-12-01T23:56:04.101Z,16.40
2022-12-01T23:58:35.136Z,17.00
